createdAt,value
2018-04-17T00:00:40.680Z,7.40
2018-04-17T00:03:11.358Z,7.40
2018-04-17T00:05:42.845Z,7.40
2018-04-17T00:08:13.576Z,7.30
2018-04-17T00:10:44.661Z,7.30
2018-04-17T00:13:16.703Z,7.20
2018-04-17T00:15:47.843Z,7.10
2018-04-17T00:18:18.561Z,7.10
2018-04-17T00:20:49.670Z,7.10
2018-04-17T00:23:20.385Z,7.10
2018-04-17T00:25:51.108Z,7.10
2018-04-17T00:28:22.160Z,7.00
2018-04-17T00:30:53.192Z,6.90
2018-04-17T00:33:24.164Z,6.90
2018-04-17T00:35:55.476Z,6.90
2018-04-17T00:38:26.559Z,6.90
2018-04-17T00:40:57.580Z,6.80
2018-04-17T00:43:28.297Z,6.70
2018-04-17T00:45:59.119Z,6.80
2018-04-17T00:48:30.581Z,6.70
2018-04-17T00:51:01.684Z,6.60
2018-04-17T00:53:41.270Z,6.60
2018-04-17T00:56:12.363Z,6.60
2018-04-17T00:58:44.043Z,6.70
2018-04-17T01:01:15.721Z,6.60
2018-04-17T01:03:46.539Z,6.50
2018-04-17T01:06:18.700Z,6.20
2018-04-17T01:08:50.179Z,6.20
2018-04-17T01:11:22.080Z,6.20
2018-04-17T01:13:52.800Z,6.20
2018-04-17T01:16:23.642Z,6.20
2018-04-17T01:18:54.687Z,6.20
2018-04-17T01:21:25.914Z,6.20
2018-04-17T01:23:56.649Z,6.20
2018-04-17T01:26:27.828Z,6.30
2018-04-17T01:28:58.673Z,6.30
2018-04-17T01:31:30.488Z,6.30
2018-04-17T01:34:01.389Z,6.30
2018-04-17T01:36:32.384Z,6.30
2018-04-17T01:39:03.361Z,6.30
2018-04-17T01:41:34.788Z,6.20
2018-04-17T01:44:06.379Z,6.20
2018-04-17T01:46:37.535Z,6.20
2018-04-17T01:49:08.300Z,6.20
2018-04-17T01:51:39.204Z,6.20
2018-04-17T01:54:09.911Z,6.20
2018-04-17T01:56:40.954Z,6.20
2018-04-17T01:59:11.638Z,6.10
2018-04-17T02:01:51.726Z,6.10
2018-04-17T02:04:24.310Z,6.10
2018-04-17T02:06:55.135Z,6.00
2018-04-17T02:09:26.899Z,5.90
2018-04-17T02:11:57.610Z,5.90
2018-04-17T02:14:28.372Z,5.90
2018-04-17T02:16:59.406Z,5.90
2018-04-17T02:19:31.065Z,5.80
2018-04-17T02:22:02.140Z,5.80
2018-04-17T02:24:32.809Z,5.80
2018-04-17T02:27:04.257Z,5.70
2018-04-17T02:29:35.244Z,5.70
2018-04-17T02:32:06.242Z,5.80
2018-04-17T02:34:37.686Z,5.90
2018-04-17T02:37:08.644Z,5.90
2018-04-17T02:39:40.089Z,6.00
2018-04-17T02:42:11.958Z,6.10
2018-04-17T02:44:42.957Z,6.00
2018-04-17T02:47:14.411Z,6.00
2018-04-17T02:49:45.105Z,5.90
2018-04-17T02:52:16.204Z,5.80
2018-04-17T02:54:47.658Z,5.80
2018-04-17T02:57:19.593Z,5.70
2018-04-17T02:59:51.589Z,5.70
2018-04-17T03:02:22.428Z,5.60
2018-04-17T03:04:53.114Z,5.70
2018-04-17T03:07:24.256Z,5.60
2018-04-17T03:09:56.276Z,5.50
2018-04-17T03:12:27.817Z,5.40
2018-04-17T03:14:59.402Z,5.50
2018-04-17T03:17:31.240Z,5.40
2018-04-17T03:20:02.446Z,5.40
2018-04-17T03:22:33.889Z,5.30
2018-04-17T03:25:05.380Z,5.30
2018-04-17T03:27:36.348Z,5.30
2018-04-17T03:30:07.845Z,5.20
2018-04-17T03:32:39.913Z,5.20
2018-04-17T03:35:11.381Z,5.10
2018-04-17T03:37:42.063Z,5.10
2018-04-17T03:40:12.751Z,5.20
2018-04-17T03:42:43.853Z,5.10
2018-04-17T03:45:14.716Z,5.10
2018-04-17T03:47:45.977Z,5.10
2018-04-17T03:50:16.676Z,5.10
2018-04-17T03:52:48.228Z,5.10
2018-04-17T03:55:19.692Z,5.10
2018-04-17T03:57:50.409Z,5.00
2018-04-17T04:00:22.692Z,5.10
2018-04-17T04:02:54.889Z,5.10
2018-04-17T04:05:26.176Z,5.10
2018-04-17T04:07:57.625Z,5.10
2018-04-17T04:10:29.120Z,5.00
2018-04-17T04:13:00.269Z,5.00
2018-04-17T04:15:30.984Z,5.00
2018-04-17T04:20:17.161Z,5.10
2018-04-17T04:24:59.800Z,5.20
2018-04-17T04:27:30.871Z,5.30
2018-04-17T04:30:01.835Z,5.30
2018-04-17T04:32:34.036Z,5.40
2018-04-17T04:35:04.801Z,5.50
2018-04-17T04:37:35.692Z,5.50
2018-04-17T04:40:06.360Z,5.50
2018-04-17T04:42:37.056Z,5.60
2018-04-17T04:45:08.176Z,5.70
2018-04-17T04:47:39.225Z,5.70
2018-04-17T04:50:10.138Z,5.80
2018-04-17T04:52:40.988Z,5.70
2018-04-17T04:55:11.692Z,5.80
2018-04-17T04:57:42.433Z,5.80
2018-04-17T05:00:13.979Z,5.90
2018-04-17T05:02:44.767Z,5.90
2018-04-17T05:05:16.330Z,5.90
2018-04-17T05:07:47.804Z,6.00
2018-04-17T05:10:18.821Z,6.00
2018-04-17T05:12:49.683Z,6.10
2018-04-17T05:15:20.371Z,6.10
2018-04-17T05:17:53.465Z,6.30
2018-04-17T05:20:24.515Z,6.30
2018-04-17T05:22:56.313Z,6.50
2018-04-17T05:25:27.449Z,6.50
2018-04-17T05:27:58.600Z,6.60
2018-04-17T05:30:29.657Z,6.70
2018-04-17T05:33:01.028Z,6.80
2018-04-17T05:35:32.213Z,6.90
2018-04-17T05:38:03.319Z,7.00
2018-04-17T05:40:34.696Z,7.10
2018-04-17T05:43:06.585Z,7.20
2018-04-17T05:45:38.340Z,7.50
2018-04-17T05:48:09.774Z,7.50
2018-04-17T05:51:45.206Z,7.70
2018-04-17T05:54:16.768Z,7.80
2018-04-17T05:56:47.652Z,8.00
2018-04-17T05:59:19.341Z,8.20
2018-04-17T06:01:51.456Z,8.50
2018-04-17T06:04:22.129Z,8.50
2018-04-17T06:06:52.856Z,8.60
2018-04-17T06:09:23.723Z,8.80
2018-04-17T06:11:58.943Z,9.00
2018-04-17T06:14:50.674Z,9.30
2018-04-17T06:17:35.820Z,9.30
2018-04-17T06:20:08.639Z,9.40
2018-04-17T06:22:42.159Z,9.50
2018-04-17T06:25:17.584Z,9.70
2018-04-17T06:27:48.712Z,9.80
2018-04-17T06:30:20.056Z,9.90
2018-04-17T06:32:51.652Z,10.00
2018-04-17T06:35:23.903Z,10.00
2018-04-17T06:37:54.585Z,10.10
2018-04-17T06:40:25.948Z,10.20
2018-04-17T06:42:57.428Z,10.30
2018-04-17T06:45:28.914Z,10.30
2018-04-17T06:48:01.039Z,10.40
2018-04-17T06:50:31.955Z,10.60
2018-04-17T06:53:04.426Z,10.70
2018-04-17T06:55:35.572Z,10.90
2018-04-17T06:58:07.626Z,11.30
2018-04-17T07:00:40.320Z,11.20
2018-04-17T07:03:12.217Z,11.10
2018-04-17T07:05:43.229Z,11.30
2018-04-17T07:08:15.319Z,11.80
2018-04-17T07:10:46.376Z,11.70
2018-04-17T07:13:17.984Z,11.80
2018-04-17T07:15:50.354Z,11.60
2018-04-17T07:18:21.373Z,11.60
2018-04-17T07:20:53.879Z,11.60
2018-04-17T07:23:25.336Z,11.90
2018-04-17T07:25:56.636Z,11.90
2018-04-17T07:28:27.336Z,11.90
2018-04-17T07:30:58.701Z,11.90
2018-04-17T07:33:29.669Z,12.20
2018-04-17T07:36:02.272Z,12.20
2018-04-17T07:38:35.801Z,12.20
2018-04-17T07:41:07.545Z,12.20
2018-04-17T07:43:38.528Z,12.30
2018-04-17T07:46:11.796Z,12.50
2018-04-17T07:48:52.245Z,12.70
2018-04-17T07:51:24.461Z,12.60
2018-04-17T07:53:56.448Z,12.60
2018-04-17T07:56:27.508Z,12.50
2018-04-17T07:58:58.680Z,12.60
2018-04-17T08:01:29.857Z,12.60
2018-04-17T08:04:01.649Z,12.80
2018-04-17T08:06:32.449Z,12.80
2018-04-17T08:09:04.352Z,13.10
2018-04-17T08:11:35.879Z,13.10
2018-04-17T08:14:06.591Z,13.20
2018-04-17T08:16:40.544Z,13.20
2018-04-17T08:19:11.754Z,13.40
2018-04-17T08:21:45.472Z,13.70
2018-04-17T08:24:17.064Z,13.60
2018-04-17T08:26:48.849Z,13.80
2018-04-17T08:29:20.352Z,13.80
2018-04-17T08:31:51.118Z,13.80
2018-04-17T08:34:22.212Z,14.00
2018-04-17T08:36:52.994Z,14.00
2018-04-17T08:39:23.670Z,13.90
2018-04-17T08:41:55.476Z,14.30
2018-04-17T08:44:26.167Z,14.30
2018-04-17T08:46:58.343Z,14.30
2018-04-17T08:49:29.564Z,14.30
2018-04-17T08:52:00.436Z,14.00
2018-04-17T08:54:31.193Z,14.20
2018-04-17T08:57:02.500Z,14.10
2018-04-17T08:59:33.210Z,14.00
2018-04-17T09:02:04.097Z,14.30
2018-04-17T09:04:35.452Z,14.50
2018-04-17T09:07:07.113Z,14.20
2018-04-17T09:09:38.024Z,14.20
2018-04-17T09:12:08.995Z,14.40
2018-04-17T09:14:39.725Z,14.30
2018-04-17T09:17:10.447Z,14.50
2018-04-17T09:19:42.298Z,14.60
2018-04-17T09:22:13.600Z,14.60
2018-04-17T09:24:45.083Z,14.70
2018-04-17T09:27:16.016Z,14.70
2018-04-17T09:29:46.696Z,14.60
2018-04-17T09:32:17.915Z,14.60
2018-04-17T09:34:49.034Z,14.90
2018-04-17T09:37:19.868Z,15.00
2018-04-17T09:39:50.735Z,15.10
2018-04-17T09:42:21.416Z,15.20
2018-04-17T09:44:53.229Z,15.00
2018-04-17T09:47:23.918Z,15.00
2018-04-17T09:49:54.690Z,15.00
2018-04-17T09:52:26.521Z,15.10
2018-04-17T09:54:57.185Z,15.40
2018-04-17T09:57:27.868Z,15.20
2018-04-17T09:59:58.644Z,15.20
2018-04-17T10:02:29.448Z,15.40
2018-04-17T10:05:00.568Z,15.20
2018-04-17T10:07:32.196Z,15.30
2018-04-17T10:10:02.892Z,15.30
2018-04-17T10:12:33.576Z,15.30
2018-04-17T10:15:04.660Z,15.20
2018-04-17T10:17:35.904Z,15.20
2018-04-17T10:20:06.820Z,15.30
2018-04-17T10:22:39.824Z,15.20
2018-04-17T10:25:10.480Z,15.20
2018-04-17T10:27:41.373Z,15.60
2018-04-17T10:30:12.541Z,15.60
2018-04-17T10:32:43.548Z,15.80
2018-04-17T10:35:15.064Z,16.00
2018-04-17T10:37:45.884Z,16.00
2018-04-17T10:40:17.066Z,16.00
2018-04-17T10:42:48.683Z,16.40
2018-04-17T10:45:19.389Z,16.40
2018-04-17T10:47:50.736Z,16.60
2018-04-17T10:50:21.500Z,16.80
2018-04-17T10:52:52.376Z,16.80
2018-04-17T10:55:23.047Z,16.70
2018-04-17T10:57:53.808Z,17.00
2018-04-17T11:00:24.852Z,17.10
2018-04-17T11:02:55.564Z,17.20
2018-04-17T11:05:26.241Z,17.00
2018-04-17T11:07:57.470Z,17.10
2018-04-17T11:10:28.668Z,17.30
2018-04-17T11:12:59.755Z,17.40
2018-04-17T11:15:30.452Z,17.80
2018-04-17T11:18:01.602Z,17.90
2018-04-17T11:20:33.056Z,17.70
2018-04-17T11:23:04.672Z,17.50
2018-04-17T11:25:36.128Z,17.70
2018-04-17T11:28:07.101Z,17.60
2018-04-17T11:30:38.062Z,17.80
2018-04-17T11:33:09.564Z,18.10
2018-04-17T11:35:40.288Z,18.10
2018-04-17T11:38:12.067Z,17.90
2018-04-17T11:40:42.753Z,17.90
2018-04-17T11:43:14.501Z,17.90
2018-04-17T11:45:45.195Z,17.90
2018-04-17T11:48:16.440Z,17.60
2018-04-17T11:50:47.181Z,17.60
2018-04-17T11:53:18.277Z,17.90
2018-04-17T11:55:48.983Z,18.00
2018-04-17T11:58:19.677Z,18.30
2018-04-17T12:00:50.716Z,18.80
2018-04-17T12:03:21.596Z,19.10
2018-04-17T12:05:52.371Z,18.80
2018-04-17T12:08:23.040Z,19.00
2018-04-17T12:10:53.860Z,18.90
2018-04-17T12:13:24.712Z,19.40
2018-04-17T12:15:56.424Z,19.50
2018-04-17T12:18:28.435Z,20.40
2018-04-17T12:20:59.100Z,20.40
2018-04-17T12:23:34.413Z,20.50
2018-04-17T12:26:06.139Z,19.90
2018-04-17T12:28:38.076Z,19.70
2018-04-17T12:31:09.169Z,19.50
2018-04-17T12:33:39.843Z,20.50
2018-04-17T12:36:11.468Z,22.00
2018-04-17T12:38:51.097Z,22.00
2018-04-17T12:41:21.821Z,21.90
2018-04-17T12:43:52.813Z,21.80
2018-04-17T12:46:24.245Z,22.40
2018-04-17T12:48:56.145Z,23.00
2018-04-17T12:51:26.818Z,23.00
2018-04-17T12:53:57.512Z,23.70
2018-04-17T12:56:28.214Z,23.70
2018-04-17T12:58:59.983Z,22.00
2018-04-17T13:01:30.676Z,21.90
2018-04-17T13:04:01.654Z,21.40
2018-04-17T13:06:33.108Z,21.20
2018-04-17T13:09:05.376Z,21.70
2018-04-17T13:11:36.111Z,21.70
2018-04-17T13:14:06.961Z,23.10
2018-04-17T13:16:37.658Z,24.00
2018-04-17T13:19:09.140Z,23.80
2018-04-17T13:21:39.853Z,23.70
2018-04-17T13:24:13.539Z,25.50
2018-04-17T13:26:44.196Z,25.40
2018-04-17T13:29:15.692Z,23.90
2018-04-17T13:31:46.362Z,23.90
2018-04-17T13:34:17.476Z,23.60
2018-04-17T13:36:49.005Z,24.00
2018-04-17T13:39:19.932Z,25.00
2018-04-17T13:41:50.696Z,24.10
2018-04-17T13:44:21.936Z,24.60
2018-04-17T13:46:52.651Z,24.00
2018-04-17T13:49:24.267Z,23.90
2018-04-17T13:51:55.248Z,24.70
2018-04-17T13:54:26.060Z,25.00
2018-04-17T13:56:57.540Z,25.60
2018-04-17T13:59:29.757Z,25.60
2018-04-17T14:02:00.450Z,24.40
2018-04-17T14:04:31.842Z,22.90
2018-04-17T14:07:02.551Z,23.50
2018-04-17T14:09:33.464Z,23.80
2018-04-17T14:12:04.452Z,25.10
2018-04-17T14:14:35.898Z,27.50
2018-04-17T14:17:06.579Z,27.50
2018-04-17T14:19:37.849Z,29.10
2018-04-17T14:22:08.556Z,28.40
2018-04-17T14:24:39.365Z,27.00
2018-04-17T14:27:10.825Z,23.80
2018-04-17T14:29:41.687Z,23.70
2018-04-17T14:32:12.437Z,24.40
2018-04-17T14:34:43.411Z,26.20
2018-04-17T14:37:15.192Z,24.40
2018-04-17T14:39:47.141Z,24.40
2018-04-17T14:42:18.727Z,26.60
2018-04-17T14:44:50.240Z,26.90
2018-04-17T14:47:21.712Z,26.70
2018-04-17T14:49:52.445Z,26.70
2018-04-17T14:52:23.500Z,26.30
2018-04-17T14:54:54.200Z,25.80
2018-04-17T14:57:25.660Z,26.80
2018-04-17T14:59:57.680Z,28.60
2018-04-17T15:02:28.332Z,28.60
2018-04-17T15:04:59.034Z,29.50
2018-04-17T15:07:30.176Z,29.50
2018-04-17T15:10:01.015Z,26.80
2018-04-17T15:12:31.743Z,25.40
2018-04-17T15:15:02.821Z,25.10
2018-04-17T15:17:33.532Z,26.90
2018-04-17T15:20:04.564Z,28.50
2018-04-17T15:22:35.309Z,28.70
2018-04-17T15:25:06.103Z,30.50
2018-04-17T15:27:36.765Z,29.50
2018-04-17T15:30:07.972Z,26.70
2018-04-17T15:32:39.232Z,25.90
2018-04-17T15:35:10.212Z,26.10
2018-04-17T15:37:41.275Z,24.80
2018-04-17T15:40:11.956Z,24.50
2018-04-17T15:42:42.655Z,24.70
2018-04-17T15:45:14.284Z,25.30
2018-04-17T15:47:44.965Z,25.20
2018-04-17T15:50:16.237Z,25.10
2018-04-17T15:52:46.961Z,26.50
2018-04-17T15:55:17.957Z,27.50
2018-04-17T15:57:49.740Z,26.60
2018-04-17T16:00:20.757Z,26.50
2018-04-17T16:02:52.868Z,24.30
2018-04-17T16:05:24.143Z,24.30
2018-04-17T16:07:54.877Z,24.30
2018-04-17T16:10:25.572Z,24.30
2018-04-17T16:12:56.284Z,23.90
2018-04-17T16:15:27.156Z,23.40
2018-04-17T16:17:57.832Z,23.50
2018-04-17T16:20:28.797Z,23.40
2018-04-17T16:22:59.800Z,22.80
2018-04-17T16:25:30.573Z,22.10
2018-04-17T16:28:01.772Z,21.30
2018-04-17T16:30:32.597Z,21.00
2018-04-17T16:33:03.342Z,20.60
2018-04-17T16:35:34.979Z,21.10
2018-04-17T16:38:06.609Z,22.20
2018-04-17T16:40:37.504Z,23.10
2018-04-17T16:43:08.956Z,24.30
2018-04-17T16:45:39.912Z,24.30
2018-04-17T16:48:11.350Z,26.20
2018-04-17T16:50:42.184Z,26.10
2018-04-17T16:53:13.950Z,25.80
2018-04-17T16:55:45.504Z,25.80
2018-04-17T16:58:16.200Z,25.20
2018-04-17T17:00:47.080Z,24.30
2018-04-17T17:03:17.825Z,23.50
2018-04-17T17:05:48.940Z,23.50
2018-04-17T17:08:19.648Z,23.70
2018-04-17T17:10:50.552Z,24.00
2018-04-17T17:13:21.266Z,24.50
2018-04-17T17:59:34.576Z,24.90
2018-04-17T18:02:06.472Z,18.90
2018-04-17T18:04:38.250Z,18.90
2018-04-17T18:07:08.976Z,18.90
2018-04-17T18:09:39.936Z,18.80
2018-04-17T18:12:10.611Z,18.80
2018-04-17T18:14:41.427Z,18.80
2018-04-17T18:17:13.008Z,18.70
2018-04-17T18:19:43.705Z,18.70
2018-04-17T18:22:15.142Z,18.50
2018-04-17T18:24:45.804Z,18.50
2018-04-17T18:27:16.507Z,18.50
2018-04-17T18:29:47.468Z,18.30
2018-04-17T18:32:18.124Z,18.00
2018-04-17T18:34:48.977Z,17.90
2018-04-17T18:37:19.707Z,17.80
2018-04-17T18:39:50.467Z,17.80
2018-04-17T18:42:21.188Z,17.70
2018-04-17T18:44:52.213Z,17.70
2018-04-17T18:47:22.925Z,17.60
2018-04-17T18:49:54.057Z,17.60
2018-04-17T18:52:24.838Z,17.50
2018-04-17T18:54:55.515Z,17.50
2018-04-17T18:57:27.012Z,17.40
2018-04-17T18:59:57.812Z,17.30
2018-04-17T19:02:28.507Z,17.30
2018-04-17T19:05:00.150Z,17.10
2018-04-17T19:07:30.833Z,17.10
2018-04-17T19:10:01.545Z,17.10
2018-04-17T19:12:33.069Z,16.80
2018-04-17T19:15:04.079Z,16.80
2018-04-17T19:17:34.773Z,16.80
2018-04-17T19:20:06.808Z,16.80
2018-04-17T19:22:37.514Z,16.70
2018-04-17T19:25:08.504Z,16.80
2018-04-17T19:27:39.945Z,16.70
2018-04-17T19:30:10.880Z,16.60
2018-04-17T19:32:41.853Z,16.60
2018-04-17T19:35:12.678Z,16.40
2018-04-17T19:37:43.428Z,16.30
2018-04-17T19:40:14.891Z,16.40
2018-04-17T19:42:45.848Z,16.10
2018-04-17T19:45:16.909Z,16.00
2018-04-17T19:47:47.587Z,15.80
2018-04-17T19:50:19.049Z,15.60
2018-04-17T19:52:49.881Z,15.60
2018-04-17T19:55:20.901Z,15.50
2018-04-17T19:57:52.400Z,15.30
2018-04-17T20:00:23.149Z,15.30
2018-04-17T20:02:54.117Z,15.20
2018-04-17T20:05:25.590Z,14.90
2018-04-17T20:07:56.193Z,14.90
2018-04-17T20:10:27.800Z,14.80
2018-04-17T20:12:58.392Z,14.70
2018-04-17T20:15:29.676Z,14.70
2018-04-17T20:18:00.379Z,14.70
2018-04-17T20:20:31.446Z,14.70
2018-04-17T20:23:02.128Z,14.60
2018-04-17T20:25:33.628Z,14.80
2018-04-17T20:28:04.371Z,14.60
2018-04-17T20:30:35.072Z,14.70
2018-04-17T20:33:06.150Z,14.70
2018-04-17T20:35:37.160Z,14.70
2018-04-17T20:38:07.745Z,14.60
2018-04-17T20:40:38.420Z,14.60
2018-04-17T20:43:09.299Z,14.60
2018-04-17T20:45:40.444Z,14.70
2018-04-17T20:48:11.163Z,14.70
2018-04-17T20:50:42.281Z,14.60
2018-04-17T20:53:13.129Z,14.50
2018-04-17T20:55:44.316Z,14.50
2018-04-17T20:58:15.937Z,14.30
2018-04-17T21:00:46.756Z,14.30
2018-04-17T21:03:17.800Z,14.20
2018-04-17T21:05:48.820Z,14.20
2018-04-17T21:08:19.663Z,14.10
2018-04-17T21:10:50.796Z,14.00
2018-04-17T21:13:21.652Z,13.90
2018-04-17T21:15:52.900Z,13.80
2018-04-17T21:18:23.749Z,13.90
2018-04-17T21:20:54.436Z,13.90
2018-04-17T21:23:25.225Z,13.80
2018-04-17T21:25:56.205Z,13.80
2018-04-17T21:28:27.644Z,13.70
2018-04-17T21:30:59.081Z,13.70
2018-04-17T21:33:30.800Z,13.60
2018-04-17T21:36:01.663Z,13.60
2018-04-17T21:38:32.260Z,13.50
2018-04-17T21:41:03.100Z,13.40
2018-04-17T21:43:33.801Z,13.40
2018-04-17T21:46:05.085Z,13.30
2018-04-17T21:48:35.811Z,13.30
2018-04-17T21:51:06.493Z,13.30
2018-04-17T21:53:37.916Z,13.40
2018-04-17T21:56:08.612Z,13.30
2018-04-17T21:58:39.680Z,13.40
2018-04-17T22:01:10.356Z,13.30
2018-04-17T22:03:41.249Z,13.20
2018-04-17T22:06:12.076Z,13.20
2018-04-17T22:08:42.825Z,13.10
2018-04-17T22:11:13.804Z,13.00
2018-04-17T22:13:45.375Z,13.10
2018-04-17T22:16:16.530Z,13.00
2018-04-17T22:18:47.244Z,13.10
2018-04-17T22:21:18.308Z,13.10
2018-04-17T22:23:49.403Z,13.10
2018-04-17T22:26:21.059Z,13.00
2018-04-17T22:28:52.492Z,13.10
2018-04-17T22:31:23.612Z,13.00
2018-04-17T22:33:54.364Z,13.00
2018-04-17T22:36:25.096Z,13.00
2018-04-17T22:38:55.784Z,13.00
2018-04-17T22:41:26.908Z,13.00
2018-04-17T22:43:57.730Z,13.00
2018-04-17T22:46:29.433Z,12.90
2018-04-17T22:49:00.541Z,12.90
2018-04-17T22:51:31.540Z,13.10
2018-04-17T22:54:03.160Z,12.80
2018-04-17T22:56:33.975Z,12.80
2018-04-17T22:59:04.976Z,12.80
2018-04-17T23:01:36.288Z,12.80
2018-04-17T23:04:06.964Z,12.80
2018-04-17T23:06:37.676Z,12.80
2018-04-17T23:09:08.629Z,12.70
2018-04-17T23:11:40.236Z,12.60
2018-04-17T23:14:10.897Z,12.60
2018-04-17T23:16:42.188Z,12.60
2018-04-17T23:19:12.853Z,12.50
2018-04-17T23:21:43.580Z,12.50
2018-04-17T23:24:14.650Z,12.50
2018-04-17T23:26:46.265Z,12.40
2018-04-17T23:29:16.977Z,12.40
2018-04-17T23:31:49.068Z,12.20
2018-04-17T23:34:19.844Z,12.10
2018-04-17T23:36:51.408Z,12.10
2018-04-17T23:39:22.407Z,12.10
2018-04-17T23:41:53.300Z,12.10
2018-04-17T23:44:24.751Z,12.10
2018-04-17T23:46:55.871Z,12.10
2018-04-17T23:49:26.540Z,12.20
2018-04-17T23:51:57.256Z,12.10
2018-04-17T23:54:28.977Z,12.10
2018-04-17T23:56:59.965Z,12.10
2018-04-17T23:59:30.751Z,12.10
